Time;durP1;ratioP1;P1;durP2;ratioP2;P2;SDS_P1;SDS_P2;PMS_P1;PMS_P2;Temp;Humidity;BMP_temperature;BMP_pressure;BME280_temperature;BME280_humidity;BME280_pressure;Samples;Min_cycle;Max_cycle;Signal;HPM_P1;HPM_P2
2023/10/28 00:02:14;;;;;;;1.30;1.05;;;17.90;70.40;;;;;;5018001;28;20511;-55
2023/10/28 00:04:40;;;;;;;1.00;0.90;;;17.90;70.40;;;;;;5021969;28;20453;-56
2023/10/28 00:07:06;;;;;;;1.98;1.10;;;17.90;70.40;;;;;;5020996;28;20041;-53
2023/10/28 00:09:31;;;;;;;1.85;0.80;;;17.90;70.40;;;;;;5021743;28;20406;-55
2023/10/28 00:11:57;;;;;;;1.10;0.70;;;17.90;70.40;;;;;;5019718;28;20033;-54
2023/10/28 00:14:23;;;;;;;1.40;0.90;;;17.90;70.40;;;;;;5021201;28;20132;-57
2023/10/28 00:16:49;;;;;;;1.33;1.13;;;17.90;70.40;;;;;;5017734;28;20076;-55
2023/10/28 00:19:16;;;;;;;1.23;0.88;;;17.90;70.40;;;;;;5021177;28;20057;-56
2023/10/28 00:21:42;;;;;;;0.98;0.70;;;17.90;70.40;;;;;;5022213;28;20224;-57
2023/10/28 00:24:08;;;;;;;1.45;0.80;;;17.90;70.40;;;;;;5019245;28;20030;-54
2023/10/28 00:26:34;;;;;;;1.75;0.90;;;17.90;70.40;;;;;;5021200;28;20477;-54
2023/10/28 00:28:59;;;;;;;1.30;1.00;;;17.90;70.40;;;;;;5018211;28;20072;-54
2023/10/28 00:31:25;;;;;;;1.00;0.90;;;17.90;70.40;;;;;;5019289;28;20037;-55
2023/10/28 00:33:51;;;;;;;0.75;0.70;;;17.90;70.40;;;;;;5017811;28;20030;-54
2023/10/28 00:36:17;;;;;;;1.80;1.20;;;17.90;70.40;;;;;;5020637;28;20112;-55
2023/10/28 00:38:42;;;;;;;0.98;0.73;;;17.90;70.40;;;;;;5019208;28;20039;-53
2023/10/28 00:41:08;;;;;;;0.70;0.57;;;17.90;70.40;;;;;;5020376;28;20454;-53
2023/10/28 00:43:34;;;;;;;1.58;0.93;;;17.90;71.00;;;;;;5020817;28;20589;-61
2023/10/28 00:46:02;;;;;;;1.40;0.75;;;17.90;70.40;;;;;;5021223;28;20037;-54
2023/10/28 00:48:28;;;;;;;1.10;0.50;;;17.90;70.40;;;;;;5018401;28;20052;-55
2023/10/28 00:50:54;;;;;;;1.02;0.63;;;17.90;70.40;;;;;;5017483;28;20037;-56
2023/10/28 00:53:23;;;;;;;0.77;0.57;;;17.90;70.40;;;;;;5021163;28;20029;-56
2023/10/28 00:55:51;;;;;;;0.85;0.75;;;17.90;70.40;;;;;;5014149;28;20558;-55
2023/10/28 00:58:20;;;;;;;0.80;0.55;;;17.90;70.40;;;;;;5019550;28;20026;-57
2023/10/28 01:00:46;;;;;;;0.80;0.70;;;17.90;70.40;;;;;;5016991;28;20474;-55
2023/10/28 01:03:11;;;;;;;0.85;0.70;;;17.90;70.30;;;;;;5021239;28;20026;-55
2023/10/28 01:05:37;;;;;;;1.15;0.80;;;17.90;70.40;;;;;;5020589;28;20041;-57
2023/10/28 01:08:03;;;;;;;0.80;0.80;;;17.90;70.40;;;;;;5020153;28;20711;-55
2023/10/28 01:10:31;;;;;;;1.38;0.50;;;17.90;70.40;;;;;;5020269;28;20060;-55
2023/10/28 01:12:57;;;;;;;0.85;0.57;;;17.90;70.30;;;;;;5018060;28;20054;-54
2023/10/28 01:15:23;;;;;;;0.75;0.50;;;17.90;70.40;;;;;;5019592;28;20442;-55
2023/10/28 01:17:49;;;;;;;0.85;0.60;;;17.90;70.40;;;;;;5017141;28;20026;-57
2023/10/28 01:20:15;;;;;;;0.60;0.40;;;17.90;70.30;;;;;;5020634;28;20109;-53
2023/10/28 01:22:40;;;;;;;2.45;0.70;;;17.90;70.30;;;;;;5015246;28;20508;-55
2023/10/28 01:25:07;;;;;;;1.20;0.57;;;17.90;70.30;;;;;;5020883;28;20113;-54
2023/10/28 01:27:32;;;;;;;0.73;0.55;;;17.90;70.30;;;;;;5020772;28;20037;-54
2023/10/28 01:29:58;;;;;;;1.27;0.82;;;17.90;70.30;;;;;;5015918;28;20035;-55
2023/10/28 01:32:24;;;;;;;1.35;0.75;;;17.90;70.40;;;;;;5018817;28;20064;-56
2023/10/28 01:34:52;;;;;;;1.17;0.80;;;17.90;70.30;;;;;;5018859;28;20034;-55
2023/10/28 01:37:18;;;;;;;0.98;0.60;;;17.90;70.30;;;;;;5020072;28;20091;-54
2023/10/28 01:39:48;;;;;;;0.88;0.50;;;17.90;70.40;;;;;;5019777;28;20040;-57
2023/10/28 01:42:14;;;;;;;1.23;0.60;;;17.90;70.30;;;;;;5019173;28;20037;-55
2023/10/28 01:44:40;;;;;;;1.10;0.77;;;17.90;70.30;;;;;;5017389;28;20458;-53
2023/10/28 01:47:09;;;;;;;1.10;0.50;;;17.90;70.30;;;;;;5017801;28;20037;-54
2023/10/28 01:49:38;;;;;;;1.42;0.50;;;17.90;70.30;;;;;;5018575;28;20025;-59
2023/10/28 01:52:05;;;;;;;0.63;0.50;;;17.90;70.30;;;;;;5017593;28;20049;-54
2023/10/28 01:54:33;;;;;;;0.90;0.50;;;17.90;70.30;;;;;;5006615;28;20029;-56
2023/10/28 01:56:58;;;;;;;0.75;0.40;;;17.80;70.30;;;;;;5018858;28;20120;-54
2023/10/28 01:59:27;;;;;;;0.98;0.50;;;17.90;70.30;;;;;;5020031;28;20124;-55
2023/10/28 02:01:53;;;;;;;1.45;0.85;;;17.80;70.30;;;;;;5018083;28;20136;-54
2023/10/28 02:04:19;;;;;;;0.82;0.55;;;17.90;70.30;;;;;;5019146;28;20030;-54
2023/10/28 02:06:45;;;;;;;0.93;0.32;;;17.80;70.30;;;;;;5019521;28;20084;-52
2023/10/28 02:09:11;;;;;;;1.23;0.70;;;17.90;70.30;;;;;;5019339;28;20029;-52
2023/10/28 02:11:39;;;;;;;0.88;0.50;;;17.90;70.30;;;;;;5018273;28;20084;-54
2023/10/28 02:14:05;;;;;;;0.75;0.50;;;17.90;70.30;;;;;;5017603;28;20029;-54
2023/10/28 02:16:31;;;;;;;0.80;0.45;;;17.80;70.30;;;;;;5018528;28;20152;-56
2023/10/28 02:18:56;;;;;;;0.75;0.50;;;17.90;70.40;;;;;;5017739;28;20548;-57
2023/10/28 02:21:22;;;;;;;0.88;0.40;;;17.90;70.30;;;;;;5017502;28;20056;-54
2023/10/28 02:23:47;;;;;;;0.47;0.30;;;17.80;70.20;;;;;;5012928;28;20029;-57
2023/10/28 02:26:13;;;;;;;0.77;0.45;;;17.90;70.30;;;;;;5018757;28;20037;-54
2023/10/28 02:28:38;;;;;;;0.38;0.30;;;17.80;70.20;;;;;;5017749;28;20029;-55
2023/10/28 02:31:09;;;;;;;0.60;0.50;;;17.80;70.20;;;;;;5017767;28;20033;-52
2023/10/28 02:33:35;;;;;;;1.17;0.60;;;17.90;70.30;;;;;;5016900;28;20032;-55
2023/10/28 02:36:05;;;;;;;1.08;0.43;;;17.80;70.30;;;;;;5018122;28;20029;-56
2023/10/28 02:38:32;;;;;;;0.57;0.43;;;17.80;70.20;;;;;;5017879;28;20076;-57
2023/10/28 02:40:58;;;;;;;0.75;0.38;;;17.80;70.20;;;;;;5016645;28;20033;-54
2023/10/28 02:43:23;;;;;;;0.98;0.40;;;17.90;70.20;;;;;;5013940;28;20384;-55
2023/10/28 02:45:49;;;;;;;1.65;0.60;;;17.80;70.20;;;;;;5012884;28;20121;-56
2023/10/28 02:48:14;;;;;;;1.27;0.45;;;17.90;70.20;;;;;;5018027;28;20025;-55
2023/10/28 02:50:40;;;;;;;0.80;0.45;;;17.80;70.20;;;;;;5015231;28;20029;-54
2023/10/28 02:53:06;;;;;;;1.85;0.70;;;17.80;70.20;;;;;;5013626;28;20041;-55
2023/10/28 02:55:35;;;;;;;2.50;0.50;;;17.80;70.20;;;;;;5014489;28;20114;-56
2023/10/28 02:58:01;;;;;;;1.55;0.65;;;17.80;70.20;;;;;;5018393;28;20069;-56
2023/10/28 03:00:26;;;;;;;0.85;0.55;;;17.80;70.20;;;;;;5020380;28;20050;-55
2023/10/28 03:02:55;;;;;;;0.40;0.30;;;17.80;70.20;;;;;;5020370;28;20554;-56
2023/10/28 03:05:24;;;;;;;0.60;0.43;;;17.80;70.20;;;;;;5021567;28;20025;-54
2023/10/28 03:07:50;;;;;;;0.30;0.30;;;17.80;70.20;;;;;;5020375;28;20030;-55
2023/10/28 03:10:16;;;;;;;0.77;0.43;;;17.80;70.20;;;;;;5018937;28;20032;-56
2023/10/28 03:12:41;;;;;;;1.13;0.70;;;17.80;70.20;;;;;;5021023;28;20021;-54
2023/10/28 03:15:09;;;;;;;0.30;0.30;;;17.80;70.20;;;;;;5020365;28;20029;-55
2023/10/28 03:17:34;;;;;;;0.52;0.45;;;17.80;70.20;;;;;;5018986;28;20053;-56
2023/10/28 03:20:00;;;;;;;1.15;0.50;;;17.80;70.20;;;;;;5016366;28;20072;-55
2023/10/28 03:22:25;;;;;;;0.65;0.40;;;17.80;70.20;;;;;;5017238;28;20569;-56
2023/10/28 03:24:51;;;;;;;1.27;0.50;;;17.80;70.10;;;;;;5019018;28;20048;-56
2023/10/28 03:27:17;;;;;;;1.00;0.30;;;17.80;70.20;;;;;;5021099;28;20038;-56
2023/10/28 03:29:45;;;;;;;0.60;0.40;;;17.80;70.10;;;;;;5019964;28;20533;-56
2023/10/28 03:32:11;;;;;;;1.20;0.60;;;17.80;70.10;;;;;;5020329;28;20073;-55
2023/10/28 03:34:37;;;;;;;0.80;0.35;;;17.80;70.10;;;;;;5023338;28;20075;-54
2023/10/28 03:37:02;;;;;;;0.80;0.50;;;17.80;70.20;;;;;;5021638;28;20033;-56
2023/10/28 03:39:28;;;;;;;1.13;0.40;;;17.80;70.20;;;;;;5021142;28;20445;-55
2023/10/28 03:41:54;;;;;;;0.90;0.50;;;17.80;70.10;;;;;;5019518;28;20037;-55
2023/10/28 03:44:20;;;;;;;2.00;0.55;;;17.80;70.10;;;;;;5021716;28;20037;-53
2023/10/28 03:46:45;;;;;;;1.08;0.45;;;17.80;70.10;;;;;;5023755;28;20124;-56
2023/10/28 03:49:12;;;;;;;0.52;0.40;;;17.80;70.20;;;;;;5021591;28;20053;-55
2023/10/28 03:51:38;;;;;;;0.85;0.50;;;17.80;70.10;;;;;;5021495;28;20560;-55
2023/10/28 03:54:04;;;;;;;1.30;0.70;;;17.80;70.10;;;;;;5022098;28;20029;-55
2023/10/28 03:56:30;;;;;;;1.20;0.50;;;17.80;70.10;;;;;;5020987;28;20033;-56
2023/10/28 03:58:57;;;;;;;1.27;0.55;;;17.80;70.10;;;;;;5021319;28;20415;-56
2023/10/28 04:01:23;;;;;;;1.10;0.30;;;17.80;70.10;;;;;;5021132;28;20045;-54
2023/10/28 04:03:49;;;;;;;1.23;0.40;;;17.80;70.10;;;;;;5019811;28;20030;-53
2023/10/28 04:06:15;;;;;;;0.82;0.40;;;17.80;70.10;;;;;;5018998;28;20056;-56
2023/10/28 04:08:41;;;;;;;0.63;0.50;;;17.80;70.10;;;;;;5019982;28;20446;-53
2023/10/28 04:11:06;;;;;;;1.48;0.40;;;17.80;70.10;;;;;;5020594;28;20498;-57
2023/10/28 04:13:32;;;;;;;0.75;0.50;;;17.80;70.10;;;;;;5020782;28;20036;-55
2023/10/28 04:15:58;;;;;;;0.40;0.30;;;17.80;70.10;;;;;;5021536;28;20808;-54
2023/10/28 04:18:23;;;;;;;0.70;0.50;;;17.80;70.10;;;;;;5022055;28;20034;-55
2023/10/28 04:20:50;;;;;;;0.80;0.63;;;17.80;70.10;;;;;;5018853;28;20099;-55
2023/10/28 04:23:17;;;;;;;0.82;0.40;;;17.80;70.10;;;;;;5019940;28;20872;-54
2023/10/28 04:25:43;;;;;;;1.60;0.50;;;17.80;70.10;;;;;;5021609;28;20048;-56
2023/10/28 04:28:08;;;;;;;1.20;0.47;;;17.80;70.10;;;;;;5021888;28;20503;-56
2023/10/28 04:30:34;;;;;;;1.33;0.40;;;17.80;70.10;;;;;;5021554;28;20029;-56
2023/10/28 04:33:00;;;;;;;0.40;0.30;;;17.80;70.10;;;;;;5021807;28;20031;-57
2023/10/28 04:35:25;;;;;;;0.70;0.40;;;17.80;70.10;;;;;;5020818;28;20026;-55
2023/10/28 04:37:51;;;;;;;0.95;0.40;;;17.80;70.10;;;;;;5020639;28;20018;-55
2023/10/28 04:40:16;;;;;;;4.10;1.67;;;17.80;70.00;;;;;;5025181;28;20068;-54
2023/10/28 04:42:42;;;;;;;2.17;0.50;;;17.80;70.10;;;;;;5021212;28;20535;-54
2023/10/28 04:45:10;;;;;;;1.35;0.60;;;17.80;70.10;;;;;;5020531;28;20117;-55
2023/10/28 04:47:37;;;;;;;0.55;0.40;;;17.80;70.10;;;;;;5019309;28;20075;-55
2023/10/28 04:50:03;;;;;;;2.13;0.45;;;17.80;70.10;;;;;;5020323;28;20044;-55
2023/10/28 04:52:30;;;;;;;0.80;0.30;;;17.80;70.10;;;;;;5020668;28;20037;-55
2023/10/28 04:54:56;;;;;;;0.73;0.30;;;17.80;70.00;;;;;;5021600;28;20048;-56
2023/10/28 04:57:21;;;;;;;1.05;0.30;;;17.80;70.00;;;;;;5019339;28;20574;-56
2023/10/28 04:59:49;;;;;;;0.30;0.30;;;17.80;70.10;;;;;;5021134;28;20033;-56
2023/10/28 05:02:15;;;;;;;0.70;0.38;;;17.80;70.00;;;;;;5038300;23;20041;-52
2023/10/28 05:04:41;;;;;;;0.45;0.40;;;17.80;70.00;;;;;;5041480;28;20500;-56
2023/10/28 05:07:06;;;;;;;0.52;0.35;;;17.70;70.00;;;;;;5040156;28;20047;-55
2023/10/28 05:09:32;;;;;;;1.17;0.50;;;17.80;70.10;;;;;;5050370;28;20093;-56
2023/10/28 05:11:58;;;;;;;2.42;1.20;;;17.80;70.10;;;;;;5034309;28;20033;-52
2023/10/28 05:14:24;;;;;;;1.00;0.40;;;17.80;70.10;;;;;;5041523;28;20052;-56
2023/10/28 05:16:54;;;;;;;0.68;0.60;;;17.70;70.00;;;;;;5022975;28;20029;-53
2023/10/28 05:19:23;;;;;;;1.23;0.38;;;17.70;70.00;;;;;;5035582;28;20033;-50
2023/10/28 05:21:49;;;;;;;0.50;0.40;;;17.70;70.00;;;;;;5037451;28;20028;-54
2023/10/28 05:24:15;;;;;;;0.57;0.40;;;17.70;70.00;;;;;;5038771;28;20090;-51
2023/10/28 05:26:42;;;;;;;0.82;0.50;;;17.70;70.00;;;;;;5037389;28;20041;-53
2023/10/28 05:29:08;;;;;;;0.73;0.47;;;17.80;70.10;;;;;;5038620;28;20036;-53
2023/10/28 05:31:33;;;;;;;0.50;0.47;;;17.70;70.00;;;;;;5041157;28;20168;-50
2023/10/28 05:33:59;;;;;;;0.93;0.50;;;17.70;70.00;;;;;;5039903;28;20025;-51
2023/10/28 05:36:25;;;;;;;0.98;0.40;;;17.70;70.00;;;;;;5038429;28;20533;-55
2023/10/28 05:38:53;;;;;;;1.05;0.50;;;17.70;70.00;;;;;;5035294;28;20041;-56
2023/10/28 05:41:18;;;;;;;1.25;0.47;;;17.70;70.00;;;;;;5044454;28;20037;-53
2023/10/28 05:43:44;;;;;;;1.25;0.50;;;17.70;70.00;;;;;;5041508;28;20044;-52
2023/10/28 05:46:13;;;;;;;1.13;0.50;;;17.70;70.00;;;;;;5039388;28;20104;-51
2023/10/28 05:48:39;;;;;;;1.05;0.57;;;17.80;70.10;;;;;;5039162;28;20111;-53
2023/10/28 05:51:05;;;;;;;1.13;0.40;;;17.70;70.00;;;;;;5035209;28;20120;-57
2023/10/28 05:53:31;;;;;;;0.45;0.43;;;17.70;70.00;;;;;;5039026;28;20435;-53
2023/10/28 05:55:57;;;;;;;0.77;0.40;;;17.70;70.00;;;;;;5039194;28;20056;-54
2023/10/28 05:58:22;;;;;;;0.95;0.43;;;17.70;70.10;;;;;;5038310;28;20712;-53
2023/10/28 06:00:48;;;;;;;0.65;0.38;;;17.70;70.00;;;;;;5035781;28;20036;-51
2023/10/28 06:03:14;;;;;;;0.30;0.30;;;17.70;70.00;;;;;;5037250;28;20033;-55
2023/10/28 06:05:40;;;;;;;1.40;0.50;;;17.70;70.00;;;;;;5036307;28;20022;-54
2023/10/28 06:08:08;;;;;;;0.43;0.40;;;17.70;70.00;;;;;;5031479;28;20508;-58
2023/10/28 06:10:34;;;;;;;0.32;0.20;;;17.70;70.30;;;;;;5019560;28;20040;-54
2023/10/28 06:13:01;;;;;;;1.20;0.85;;;17.70;70.00;;;;;;5015339;28;20029;-52
2023/10/28 06:15:26;;;;;;;2.50;0.60;;;17.70;70.00;;;;;;5038514;28;20029;-51
2023/10/28 06:17:52;;;;;;;1.17;0.45;;;17.70;70.00;;;;;;5016837;28;20026;-55
2023/10/28 06:20:19;;;;;;;0.40;0.30;;;17.70;70.60;;;;;;5024755;28;20497;-51
2023/10/28 06:22:44;;;;;;;0.40;0.40;;;17.70;70.00;;;;;;5038785;28;20025;-54
2023/10/28 06:25:10;;;;;;;1.40;0.52;;;17.70;70.00;;;;;;5038530;28;20029;-56
2023/10/28 06:27:35;;;;;;;0.90;0.30;;;17.70;70.00;;;;;;5037994;28;20452;-55
2023/10/28 06:30:01;;;;;;;1.02;0.60;;;17.70;70.00;;;;;;5037714;28;21618;-50
2023/10/28 06:32:27;;;;;;;0.40;0.40;;;17.70;70.00;;;;;;5035351;28;20491;-58
2023/10/28 06:34:54;;;;;;;1.00;0.40;;;17.70;70.00;;;;;;5020373;28;20398;-50
2023/10/28 06:37:20;;;;;;;0.30;0.30;;;17.70;70.00;;;;;;5036966;28;20071;-53
2023/10/28 06:39:47;;;;;;;0.75;0.30;;;17.70;70.00;;;;;;5038475;28;20036;-49
2023/10/28 06:42:13;;;;;;;1.33;0.40;;;17.70;70.00;;;;;;5041524;28;20078;-59
2023/10/28 06:44:38;;;;;;;0.77;0.50;;;17.70;70.60;;;;;;5036347;28;20029;-55
2023/10/28 06:47:04;;;;;;;0.52;0.50;;;17.70;70.00;;;;;;5039344;28;20044;-53
2023/10/28 06:49:31;;;;;;;0.47;0.30;;;17.70;70.00;;;;;;5038364;28;20044;-53
2023/10/28 06:51:57;;;;;;;0.40;0.40;;;17.70;70.00;;;;;;5038195;28;20029;-58
2023/10/28 06:54:24;;;;;;;0.88;0.50;;;17.70;70.60;;;;;;5039081;28;20425;-58
2023/10/28 06:56:50;;;;;;;0.57;0.30;;;17.70;70.00;;;;;;5038250;28;20064;-54
2023/10/28 06:59:15;;;;;;;0.63;0.40;;;17.70;70.00;;;;;;5037862;28;20516;-53
2023/10/28 07:01:41;;;;;;;1.58;0.93;;;17.70;70.10;;;;;;5040705;28;20071;-54
2023/10/28 07:04:06;;;;;;;0.88;0.50;;;17.70;70.10;;;;;;5043489;28;20504;-58
2023/10/28 07:06:32;;;;;;;2.47;0.88;;;17.70;70.10;;;;;;5037740;28;20044;-55
2023/10/28 07:08:57;;;;;;;2.17;0.88;;;17.70;70.10;;;;;;5039342;28;20036;-51
2023/10/28 07:11:23;;;;;;;2.58;0.70;;;17.70;70.10;;;;;;5038804;28;20612;-58
2023/10/28 07:13:49;;;;;;;3.22;0.90;;;17.70;70.10;;;;;;5040076;28;20078;-59
2023/10/28 07:16:20;;;;;;;1.48;0.80;;;17.70;70.10;;;;;;5044054;28;20078;-52
2023/10/28 07:18:46;;;;;;;2.55;1.13;;;17.70;70.10;;;;;;5036078;28;20029;-51
2023/10/28 07:21:12;;;;;;;2.80;1.25;;;17.70;70.10;;;;;;5043475;28;20116;-56
2023/10/28 07:23:37;;;;;;;5.25;1.92;;;17.70;70.10;;;;;;5040799;28;20036;-58
2023/10/28 07:26:03;;;;;;;2.60;1.45;;;17.70;70.10;;;;;;5040552;28;20553;-51
2023/10/28 07:28:36;;;;;;;3.22;1.27;;;17.70;70.10;;;;;;5043304;28;20068;-51
2023/10/28 07:31:02;;;;;;;3.80;1.40;;;17.70;70.00;;;;;;5039682;28;20136;-55
2023/10/28 07:33:28;;;;;;;2.17;1.27;;;17.70;70.10;;;;;;5034981;28;20044;-57
2023/10/28 07:35:53;;;;;;;4.30;1.50;;;17.70;70.10;;;;;;5040516;28;20052;-56
2023/10/28 07:38:20;;;;;;;2.53;1.33;;;17.70;70.60;;;;;;5041968;28;20057;-56
2023/10/28 07:40:47;;;;;;;4.00;1.40;;;17.70;70.00;;;;;;5035242;28;20487;-56
2023/10/28 07:43:14;;;;;;;2.85;1.40;;;17.70;70.10;;;;;;5042845;28;20029;-57
2023/10/28 07:45:40;;;;;;;3.83;1.23;;;17.70;70.00;;;;;;5036165;28;20025;-54
2023/10/28 07:48:07;;;;;;;5.03;1.10;;;17.70;70.00;;;;;;5039432;28;20029;-55
2023/10/28 07:50:33;;;;;;;1.77;1.20;;;17.70;70.00;;;;;;5035944;28;20107;-54
2023/10/28 07:52:59;;;;;;;2.45;1.45;;;17.70;70.00;;;;;;5041380;28;20025;-51
2023/10/28 07:55:25;;;;;;;2.92;1.48;;;17.70;70.00;;;;;;5022399;28;20110;-51
2023/10/28 07:57:50;;;;;;;1.92;0.82;;;17.70;70.00;;;;;;5044255;28;20028;-56
2023/10/28 08:00:16;;;;;;;2.05;1.15;;;17.70;70.00;;;;;;5041762;28;20025;-58
2023/10/28 08:02:45;;;;;;;3.40;1.33;;;17.70;70.00;;;;;;5038032;28;20090;-51
2023/10/28 08:05:14;;;;;;;2.60;1.30;;;17.70;70.00;;;;;;5040483;28;20032;-58
2023/10/28 08:07:40;;;;;;;1.73;1.25;;;17.70;70.00;;;;;;5035258;28;20505;-52
2023/10/28 08:10:07;;;;;;;2.67;1.10;;;17.70;70.00;;;;;;5043457;28;20033;-54
2023/10/28 08:12:33;;;;;;;1.58;1.02;;;17.70;70.00;;;;;;5043031;28;20452;-59
2023/10/28 08:15:02;;;;;;;2.60;1.55;;;17.70;70.00;;;;;;5033583;28;20513;-56
2023/10/28 08:17:30;;;;;;;2.60;1.42;;;17.70;69.90;;;;;;5043719;28;20053;-52
2023/10/28 08:19:56;;;;;;;2.22;1.20;;;17.70;70.00;;;;;;5042882;28;20047;-51
2023/10/28 08:22:22;;;;;;;2.90;1.40;;;17.70;70.00;;;;;;5044390;28;20104;-53
2023/10/28 08:24:48;;;;;;;3.83;1.77;;;17.70;70.00;;;;;;5040768;28;20402;-52
2023/10/28 08:27:13;;;;;;;2.33;0.90;;;17.70;70.10;;;;;;5041234;28;20025;-53
2023/10/28 08:29:39;;;;;;;2.80;1.13;;;17.70;70.10;;;;;;5044318;28;20041;-56
2023/10/28 08:32:05;;;;;;;5.38;1.52;;;17.70;70.00;;;;;;5040614;28;20043;-56
2023/10/28 08:34:31;;;;;;;2.25;1.10;;;17.70;70.10;;;;;;5042874;28;20038;-54
2023/10/28 08:36:56;;;;;;;3.05;1.38;;;17.70;70.10;;;;;;5038006;28;20406;-52
2023/10/28 08:39:23;;;;;;;2.67;1.30;;;17.70;70.10;;;;;;5040095;28;20040;-50
2023/10/28 08:41:50;;;;;;;3.70;1.23;;;17.70;70.10;;;;;;5040372;28;20127;-58
2023/10/28 08:44:17;;;;;;;2.63;1.50;;;17.70;70.10;;;;;;5042461;28;20033;-54
2023/10/28 08:46:45;;;;;;;3.08;1.45;;;17.70;70.10;;;;;;5038543;28;20033;-53
2023/10/28 08:49:14;;;;;;;3.63;1.50;;;17.80;70.10;;;;;;5033552;28;20393;-53
2023/10/28 08:51:48;;;;;;;2.88;1.45;;;17.70;70.10;;;;;;5020844;28;20029;-51
2023/10/28 08:54:16;;;;;;;4.13;1.52;;;17.80;70.10;;;;;;5038531;28;20025;-55
2023/10/28 08:56:43;;;;;;;2.92;1.38;;;17.70;70.10;;;;;;5037216;28;20087;-55
2023/10/28 08:59:09;;;;;;;3.17;1.20;;;17.70;70.00;;;;;;5039294;28;20177;-54
2023/10/28 09:01:36;;;;;;;1.63;0.93;;;17.80;70.20;;;;;;5031186;28;20037;-57
2023/10/28 09:04:04;;;;;;;2.28;1.10;;;17.70;70.00;;;;;;5036588;28;20120;-54
2023/10/28 09:06:30;;;;;;;2.95;1.60;;;17.70;70.10;;;;;;5040819;28;20131;-55
2023/10/28 09:08:57;;;;;;;2.55;1.13;;;17.70;70.10;;;;;;5042625;28;20119;-57
2023/10/28 09:11:23;;;;;;;1.98;1.20;;;17.70;70.00;;;;;;5040646;28;20087;-56
2023/10/28 09:13:49;;;;;;;2.70;1.52;;;17.70;70.10;;;;;;5039843;28;20449;-53
2023/10/28 09:16:14;;;;;;;3.72;1.40;;;17.70;70.10;;;;;;5038191;28;20052;-56
2023/10/28 09:18:41;;;;;;;4.90;1.27;;;17.80;70.20;;;;;;5017124;28;20090;-55
2023/10/28 09:21:09;;;;;;;4.43;1.15;;;17.70;70.20;;;;;;5042029;28;20041;-55
2023/10/28 09:23:35;;;;;;;4.40;1.70;;;17.80;70.20;;;;;;5039440;28;20309;-54
2023/10/28 09:26:01;;;;;;;5.65;1.23;;;17.80;70.20;;;;;;5038502;28;20045;-56
2023/10/28 09:28:27;;;;;;;2.80;1.25;;;17.80;70.20;;;;;;5041669;28;20037;-53
2023/10/28 09:30:53;;;;;;;4.97;1.77;;;17.80;70.20;;;;;;5040797;28;20033;-56
2023/10/28 09:33:20;;;;;;;4.15;1.63;;;17.70;70.10;;;;;;5029051;28;20025;-56
2023/10/28 09:35:46;;;;;;;5.53;1.55;;;17.80;70.20;;;;;;5038471;28;20033;-53
2023/10/28 09:38:12;;;;;;;4.85;1.42;;;17.70;70.10;;;;;;5037442;28;20045;-56
2023/10/28 09:40:39;;;;;;;7.03;2.72;;;17.70;70.10;;;;;;5043800;28;20078;-52
2023/10/28 09:43:06;;;;;;;5.65;1.50;;;17.80;70.20;;;;;;5034983;28;20064;-56
2023/10/28 09:45:32;;;;;;;5.40;1.38;;;17.70;70.20;;;;;;5042989;28;20057;-52
2023/10/28 09:48:05;;;;;;;5.18;1.73;;;17.80;70.20;;;;;;5037954;28;20032;-51
2023/10/28 09:50:34;;;;;;;6.15;1.48;;;17.70;70.20;;;;;;5046543;28;20036;-53
2023/10/28 09:53:02;;;;;;;4.40;1.80;;;17.70;70.20;;;;;;5021760;28;20725;-56
2023/10/28 09:55:34;;;;;;;3.85;1.60;;;17.70;70.20;;;;;;5034227;28;20029;-55
2023/10/28 09:58:11;;;;;;;4.90;1.40;;;17.70;70.20;;;;;;5034980;28;20029;-54
2023/10/28 10:00:37;;;;;;;4.82;1.60;;;17.70;70.10;;;;;;5038832;28;20032;-57
2023/10/28 10:03:40;;;;;;;10.88;1.90;;;17.80;70.20;;;;;;5041862;28;20045;-52
2023/10/28 10:06:08;;;;;;;4.85;1.90;;;17.80;70.20;;;;;;5034015;28;20079;-55
2023/10/28 10:08:36;;;;;;;7.53;1.45;;;17.70;70.20;;;;;;5041022;28;20032;-53
2023/10/28 10:11:01;;;;;;;4.75;1.75;;;17.70;70.10;;;;;;5045413;28;20064;-52
2023/10/28 10:13:27;;;;;;;3.88;1.30;;;17.80;70.20;;;;;;5042531;28;20077;-57
2023/10/28 10:15:59;;;;;;;5.93;1.55;;;17.70;70.20;;;;;;5024360;28;20430;-54
2023/10/28 10:18:31;;;;;;;4.53;1.45;;;17.70;70.10;;;;;;5045595;28;20036;-55
2023/10/28 10:21:20;;;;;;;5.30;1.33;;;17.70;70.10;;;;;;5037252;28;20033;-51
2023/10/28 10:23:54;;;;;;;6.57;1.38;;;17.70;70.20;;;;;;5040428;28;20044;-55
2023/10/28 10:26:25;;;;;;;3.63;1.42;;;17.80;70.20;;;;;;5042811;28;20116;-52
2023/10/28 10:28:53;;;;;;;4.93;1.73;;;17.70;70.20;;;;;;5039524;28;20549;-52
2023/10/28 10:31:22;;;;;;;2.83;1.50;;;17.70;70.20;;;;;;5042784;28;20060;-55
2023/10/28 10:34:03;;;;;;;4.90;1.48;;;17.70;70.20;;;;;;5040381;28;20029;-54
2023/10/28 10:36:30;;;;;;;4.82;1.20;;;17.70;70.20;;;;;;5046001;28;20059;-55
2023/10/28 10:39:11;;;;;;;4.40;1.38;;;17.70;70.20;;;;;;5040200;28;20067;-53
2023/10/28 10:41:39;;;;;;;7.90;1.95;;;17.70;70.20;;;;;;5037229;28;20031;-56
2023/10/28 10:44:23;;;;;;;4.43;1.23;;;17.70;70.20;;;;;;5042302;28;20701;-54
2023/10/28 10:46:49;;;;;;;4.47;1.30;;;17.80;70.20;;;;;;5042292;28;20043;-59
2023/10/28 10:49:15;;;;;;;3.50;1.33;;;17.70;70.10;;;;;;5038598;28;20040;-52
2023/10/28 10:51:42;;;;;;;3.42;1.50;;;17.70;70.10;;;;;;5043974;28;20036;-54
2023/10/28 10:54:07;;;;;;;4.22;1.38;;;17.70;70.10;;;;;;5012025;28;20033;-51
2023/10/28 10:56:33;;;;;;;4.68;1.30;;;17.70;70.10;;;;;;5046534;28;20100;-54
2023/10/28 10:58:59;;;;;;;3.35;1.02;;;17.70;70.10;;;;;;5042318;28;20029;-51
2023/10/28 11:01:25;;;;;;;3.25;1.20;;;17.70;70.10;;;;;;5045979;28;20049;-52
2023/10/28 11:03:51;;;;;;;3.75;1.15;;;17.70;70.10;;;;;;5038662;28;20550;-53
2023/10/28 11:06:17;;;;;;;3.08;1.10;;;17.70;70.10;;;;;;5040739;28;20040;-53
2023/10/28 11:08:42;;;;;;;4.40;1.20;;;17.70;70.00;;;;;;5045649;28;20395;-56
2023/10/28 11:11:08;;;;;;;3.38;1.30;;;17.70;70.00;;;;;;5035442;28;20026;-59
2023/10/28 11:13:34;;;;;;;4.88;1.63;;;17.70;70.00;;;;;;5025713;28;20074;-58
2023/10/28 11:15:59;;;;;;;2.70;1.50;;;17.70;70.00;;;;;;5017940;28;20025;-54
2023/10/28 11:18:26;;;;;;;3.00;1.27;;;17.70;70.00;;;;;;5021528;28;20522;-54
2023/10/28 11:20:52;;;;;;;3.17;0.80;;;17.70;70.10;;;;;;5041274;28;20117;-52
2023/10/28 11:23:18;;;;;;;3.50;1.63;;;17.70;70.10;;;;;;5040539;28;20033;-53
2023/10/28 11:25:47;;;;;;;3.00;1.02;;;17.70;70.10;;;;;;5048387;28;20027;-58
2023/10/28 11:28:13;;;;;;;3.15;1.17;;;17.70;70.10;;;;;;5043257;28;20453;-52
2023/10/28 11:30:39;;;;;;;5.90;1.20;;;17.70;70.10;;;;;;5048061;28;20032;-55
2023/10/28 11:33:11;;;;;;;6.63;1.20;;;17.70;70.10;;;;;;5045256;28;20025;-55
2023/10/28 11:35:37;;;;;;;3.10;1.08;;;17.70;70.10;;;;;;5043085;28;20029;-56
2023/10/28 11:38:04;;;;;;;2.10;0.98;;;17.70;70.10;;;;;;5049618;28;20032;-54
2023/10/28 11:40:29;;;;;;;2.50;1.23;;;17.70;70.20;;;;;;5053242;28;20040;-55
2023/10/28 11:42:55;;;;;;;3.92;1.23;;;17.70;70.20;;;;;;5043447;28;20565;-57
2023/10/28 11:45:21;;;;;;;3.42;1.50;;;17.70;70.20;;;;;;5045134;28;20029;-56
2023/10/28 11:47:46;;;;;;;5.13;1.20;;;17.70;70.20;;;;;;5046326;28;20040;-55
2023/10/28 11:50:12;;;;;;;2.80;1.20;;;17.70;70.20;;;;;;5040625;28;20033;-55
2023/10/28 11:52:38;;;;;;;2.95;0.90;;;17.70;70.30;;;;;;5041087;28;20131;-57
2023/10/28 11:55:09;;;;;;;1.45;0.85;;;17.70;70.40;;;;;;5042767;28;20483;-52
2023/10/28 11:57:35;;;;;;;2.42;1.13;;;17.70;70.40;;;;;;5044784;28;20657;-55
2023/10/28 12:00:01;;;;;;;5.30;1.50;;;17.70;70.40;;;;;;5039744;28;20074;-57
2023/10/28 12:02:27;;;;;;;2.13;1.33;;;17.70;70.50;;;;;;5049416;28;20076;-49
2023/10/28 12:04:52;;;;;;;3.95;1.50;;;17.70;70.50;;;;;;5043430;28;20040;-50
2023/10/28 12:07:18;;;;;;;1.85;1.20;;;17.70;70.40;;;;;;5045130;28;20044;-55
2023/10/28 12:09:44;;;;;;;2.78;1.25;;;17.70;70.50;;;;;;5046494;28;20067;-52
2023/10/28 12:12:10;;;;;;;3.10;1.20;;;17.70;70.50;;;;;;5039047;28;20803;-54
2023/10/28 12:14:36;;;;;;;5.35;1.83;;;17.70;70.50;;;;;;5039720;28;20033;-57
2023/10/28 12:17:01;;;;;;;2.75;1.40;;;17.70;70.40;;;;;;5020938;28;20037;-53
2023/10/28 12:19:27;;;;;;;2.20;1.10;;;17.70;70.40;;;;;;5025876;28;20057;-51
2023/10/28 12:21:53;;;;;;;2.42;1.50;;;17.70;70.40;;;;;;5041144;28;20068;-52
2023/10/28 12:24:18;;;;;;;2.75;0.93;;;17.70;70.40;;;;;;5049249;28;20132;-51
2023/10/28 12:26:44;;;;;;;2.33;0.90;;;17.70;70.40;;;;;;5032724;28;20043;-55
2023/10/28 12:29:10;;;;;;;3.20;1.27;;;17.70;70.30;;;;;;5045217;28;20439;-49
2023/10/28 12:31:35;;;;;;;2.80;1.40;;;17.70;70.30;;;;;;5044422;28;20029;-52
2023/10/28 12:34:03;;;;;;;2.45;1.30;;;17.70;70.30;;;;;;5043389;28;20060;-52
2023/10/28 12:36:29;;;;;;;4.32;1.42;;;17.80;70.40;;;;;;5044889;28;20490;-56
2023/10/28 12:38:55;;;;;;;2.75;1.13;;;17.80;70.30;;;;;;5043215;28;20508;-55
2023/10/28 12:41:20;;;;;;;2.30;0.95;;;17.70;70.30;;;;;;5027840;28;20082;-56
2023/10/28 12:43:46;;;;;;;4.00;1.42;;;17.70;70.10;;;;;;5048057;28;20047;-52
2023/10/28 12:46:12;;;;;;;2.42;1.08;;;17.80;70.20;;;;;;5045904;28;20029;-53